sensor_id;sensor_type;location;lat;lon;timestamp;P1;durP1;ratioP1;P2;durP2;ratioP2
25391;SDS011;13329;48.402;11.718;2023-06-10T00:01:17;8.30;;;5.23;;
25391;SDS011;13329;48.402;11.718;2023-06-10T00:03:42;8.30;;;4.45;;
25391;SDS011;13329;48.402;11.718;2023-06-10T00:06:08;6.97;;;4.68;;
25391;SDS011;13329;48.402;11.718;2023-06-10T00:08:33;7.73;;;5.23;;
25391;SDS011;13329;48.402;11.718;2023-06-10T00:10:58;7.60;;;4.80;;
25391;SDS011;13329;48.402;11.718;2023-06-10T00:13:23;6.33;;;4.23;;
25391;SDS011;13329;48.402;11.718;2023-06-10T00:15:49;6.77;;;5.03;;
25391;SDS011;13329;48.402;11.718;2023-06-10T00:18:14;9.33;;;4.70;;
25391;SDS011;13329;48.402;11.718;2023-06-10T00:20:40;7.28;;;4.35;;
25391;SDS011;13329;48.402;11.718;2023-06-10T00:23:05;7.65;;;4.45;;
25391;SDS011;13329;48.402;11.718;2023-06-10T00:25:33;7.78;;;4.57;;
25391;SDS011;13329;48.402;11.718;2023-06-10T00:27:58;5.90;;;4.30;;
25391;SDS011;13329;48.402;11.718;2023-06-10T00:30:23;7.77;;;4.53;;
25391;SDS011;13329;48.402;11.718;2023-06-10T00:32:48;9.57;;;5.63;;
25391;SDS011;13329;48.402;11.718;2023-06-10T00:35:13;6.60;;;4.30;;
25391;SDS011;13329;48.402;11.718;2023-06-10T00:37:39;7.17;;;4.53;;
25391;SDS011;13329;48.402;11.718;2023-06-10T00:40:04;5.60;;;4.20;;
25391;SDS011;13329;48.402;11.718;2023-06-10T00:42:30;5.85;;;4.32;;
25391;SDS011;13329;48.402;11.718;2023-06-10T00:44:55;6.27;;;4.53;;
25391;SDS011;13329;48.402;11.718;2023-06-10T00:47:20;7.27;;;4.60;;
25391;SDS011;13329;48.402;11.718;2023-06-10T00:49:46;7.45;;;4.35;;
25391;SDS011;13329;48.402;11.718;2023-06-10T00:52:11;6.88;;;4.78;;
25391;SDS011;13329;48.402;11.718;2023-06-10T00:54:37;8.07;;;4.90;;
25391;SDS011;13329;48.402;11.718;2023-06-10T00:57:03;9.50;;;5.13;;
25391;SDS011;13329;48.402;11.718;2023-06-10T00:59:29;6.40;;;4.20;;
25391;SDS011;13329;48.402;11.718;2023-06-10T01:01:54;7.15;;;4.78;;
25391;SDS011;13329;48.402;11.718;2023-06-10T01:04:20;7.15;;;4.50;;
25391;SDS011;13329;48.402;11.718;2023-06-10T01:09:38;11.10;;;5.30;;
25391;SDS011;13329;48.402;11.718;2023-06-10T01:14:47;7.45;;;4.47;;
25391;SDS011;13329;48.402;11.718;2023-06-10T01:17:13;8.32;;;4.80;;
25391;SDS011;13329;48.402;11.718;2023-06-10T01:19:41;7.07;;;4.88;;
25391;SDS011;13329;48.402;11.718;2023-06-10T01:22:08;7.22;;;4.40;;
25391;SDS011;13329;48.402;11.718;2023-06-10T01:24:35;7.20;;;4.47;;
25391;SDS011;13329;48.402;11.718;2023-06-10T01:27:01;9.75;;;5.10;;
25391;SDS011;13329;48.402;11.718;2023-06-10T01:29:37;8.18;;;5.03;;
25391;SDS011;13329;48.402;11.718;2023-06-10T01:32:15;6.40;;;4.28;;
25391;SDS011;13329;48.402;11.718;2023-06-10T01:34:40;7.00;;;4.35;;
25391;SDS011;13329;48.402;11.718;2023-06-10T01:37:07;7.72;;;4.60;;
25391;SDS011;13329;48.402;11.718;2023-06-10T01:39:33;7.88;;;4.65;;
25391;SDS011;13329;48.402;11.718;2023-06-10T01:41:58;8.50;;;4.73;;
25391;SDS011;13329;48.402;11.718;2023-06-10T01:44:24;8.63;;;4.90;;
25391;SDS011;13329;48.402;11.718;2023-06-10T01:46:49;8.37;;;5.07;;
25391;SDS011;13329;48.402;11.718;2023-06-10T01:49:14;9.02;;;5.15;;
25391;SDS011;13329;48.402;11.718;2023-06-10T01:51:40;6.57;;;4.60;;
25391;SDS011;13329;48.402;11.718;2023-06-10T01:54:05;8.00;;;4.78;;
25391;SDS011;13329;48.402;11.718;2023-06-10T01:56:31;7.35;;;5.00;;
25391;SDS011;13329;48.402;11.718;2023-06-10T01:58:56;8.17;;;5.23;;
25391;SDS011;13329;48.402;11.718;2023-06-10T02:01:24;10.20;;;5.30;;
25391;SDS011;13329;48.402;11.718;2023-06-10T02:03:49;9.07;;;5.40;;
25391;SDS011;13329;48.402;11.718;2023-06-10T02:06:14;6.50;;;4.60;;
25391;SDS011;13329;48.402;11.718;2023-06-10T02:08:39;10.97;;;5.30;;
25391;SDS011;13329;48.402;11.718;2023-06-10T02:11:05;7.73;;;5.23;;
25391;SDS011;13329;48.402;11.718;2023-06-10T02:13:31;8.57;;;5.15;;
25391;SDS011;13329;48.402;11.718;2023-06-10T02:15:57;7.43;;;4.90;;
25391;SDS011;13329;48.402;11.718;2023-06-10T02:18:22;10.93;;;5.50;;
25391;SDS011;13329;48.402;11.718;2023-06-10T02:20:47;7.83;;;5.20;;
25391;SDS011;13329;48.402;11.718;2023-06-10T02:23:12;7.73;;;4.83;;
25391;SDS011;13329;48.402;11.718;2023-06-10T02:25:38;12.20;;;5.50;;
25391;SDS011;13329;48.402;11.718;2023-06-10T02:28:03;7.50;;;4.43;;
25391;SDS011;13329;48.402;11.718;2023-06-10T02:30:28;7.50;;;4.80;;
25391;SDS011;13329;48.402;11.718;2023-06-10T02:32:53;8.53;;;5.20;;
25391;SDS011;13329;48.402;11.718;2023-06-10T02:35:21;6.75;;;4.70;;
25391;SDS011;13329;48.402;11.718;2023-06-10T02:37:47;9.32;;;4.93;;
25391;SDS011;13329;48.402;11.718;2023-06-10T02:40:12;6.80;;;4.77;;
25391;SDS011;13329;48.402;11.718;2023-06-10T02:42:38;9.03;;;5.20;;
25391;SDS011;13329;48.402;11.718;2023-06-10T02:45:03;9.43;;;5.20;;
25391;SDS011;13329;48.402;11.718;2023-06-10T02:47:29;8.35;;;4.93;;
25391;SDS011;13329;48.402;11.718;2023-06-10T02:49:55;8.82;;;5.50;;
25391;SDS011;13329;48.402;11.718;2023-06-10T02:52:20;8.20;;;4.87;;
25391;SDS011;13329;48.402;11.718;2023-06-10T02:54:45;8.70;;;4.97;;
25391;SDS011;13329;48.402;11.718;2023-06-10T02:57:10;9.75;;;5.22;;
25391;SDS011;13329;48.402;11.718;2023-06-10T02:59:36;10.97;;;5.17;;
25391;SDS011;13329;48.402;11.718;2023-06-10T03:02:01;7.80;;;5.30;;
25391;SDS011;13329;48.402;11.718;2023-06-10T03:04:26;8.00;;;5.15;;
25391;SDS011;13329;48.402;11.718;2023-06-10T03:06:53;8.38;;;5.03;;
25391;SDS011;13329;48.402;11.718;2023-06-10T03:09:19;7.43;;;5.10;;
25391;SDS011;13329;48.402;11.718;2023-06-10T03:11:44;12.60;;;5.83;;
25391;SDS011;13329;48.402;11.718;2023-06-10T03:14:09;8.70;;;5.50;;
25391;SDS011;13329;48.402;11.718;2023-06-10T03:16:35;9.47;;;5.87;;
25391;SDS011;13329;48.402;11.718;2023-06-10T03:19:00;8.70;;;5.47;;
25391;SDS011;13329;48.402;11.718;2023-06-10T03:21:25;9.17;;;5.17;;
25391;SDS011;13329;48.402;11.718;2023-06-10T03:23:51;7.78;;;5.20;;
25391;SDS011;13329;48.402;11.718;2023-06-10T03:26:17;10.27;;;5.17;;
25391;SDS011;13329;48.402;11.718;2023-06-10T03:28:42;7.53;;;4.83;;
25391;SDS011;13329;48.402;11.718;2023-06-10T03:31:07;7.83;;;4.57;;
25391;SDS011;13329;48.402;11.718;2023-06-10T03:33:32;7.23;;;5.17;;
25391;SDS011;13329;48.402;11.718;2023-06-10T03:35:58;8.05;;;5.35;;
25391;SDS011;13329;48.402;11.718;2023-06-10T03:38:23;9.48;;;5.63;;
25391;SDS011;13329;48.402;11.718;2023-06-10T03:40:48;8.60;;;5.57;;
25391;SDS011;13329;48.402;11.718;2023-06-10T03:43:13;9.23;;;6.00;;
25391;SDS011;13329;48.402;11.718;2023-06-10T03:45:38;7.87;;;5.10;;
25391;SDS011;13329;48.402;11.718;2023-06-10T03:48:04;8.27;;;4.97;;
25391;SDS011;13329;48.402;11.718;2023-06-10T03:50:29;12.13;;;5.03;;
25391;SDS011;13329;48.402;11.718;2023-06-10T03:52:54;9.05;;;5.18;;
25391;SDS011;13329;48.402;11.718;2023-06-10T03:55:19;9.00;;;5.20;;
25391;SDS011;13329;48.402;11.718;2023-06-10T03:57:46;8.35;;;5.53;;
25391;SDS011;13329;48.402;11.718;2023-06-10T04:00:12;8.20;;;5.65;;
25391;SDS011;13329;48.402;11.718;2023-06-10T04:02:40;7.95;;;4.95;;
25391;SDS011;13329;48.402;11.718;2023-06-10T04:05:16;10.68;;;5.45;;
25391;SDS011;13329;48.402;11.718;2023-06-10T04:07:42;9.02;;;5.22;;
25391;SDS011;13329;48.402;11.718;2023-06-10T04:10:09;11.25;;;5.30;;
25391;SDS011;13329;48.402;11.718;2023-06-10T04:12:34;8.52;;;5.65;;
25391;SDS011;13329;48.402;11.718;2023-06-10T04:15:00;10.77;;;5.43;;
25391;SDS011;13329;48.402;11.718;2023-06-10T04:17:25;9.30;;;5.38;;
25391;SDS011;13329;48.402;11.718;2023-06-10T04:19:50;8.80;;;5.55;;
25391;SDS011;13329;48.402;11.718;2023-06-10T04:22:16;10.60;;;5.07;;
25391;SDS011;13329;48.402;11.718;2023-06-10T04:24:41;9.68;;;5.28;;
25391;SDS011;13329;48.402;11.718;2023-06-10T04:27:07;8.02;;;5.30;;
25391;SDS011;13329;48.402;11.718;2023-06-10T04:29:32;8.47;;;5.23;;
25391;SDS011;13329;48.402;11.718;2023-06-10T04:31:58;6.63;;;4.53;;
25391;SDS011;13329;48.402;11.718;2023-06-10T04:34:23;8.03;;;5.20;;
25391;SDS011;13329;48.402;11.718;2023-06-10T04:36:48;8.67;;;5.47;;
25391;SDS011;13329;48.402;11.718;2023-06-10T04:39:13;8.93;;;5.60;;
25391;SDS011;13329;48.402;11.718;2023-06-10T04:41:41;9.48;;;5.43;;
25391;SDS011;13329;48.402;11.718;2023-06-10T04:44:06;8.63;;;5.47;;
25391;SDS011;13329;48.402;11.718;2023-06-10T04:46:32;8.43;;;5.33;;
25391;SDS011;13329;48.402;11.718;2023-06-10T04:48:57;8.10;;;5.00;;
25391;SDS011;13329;48.402;11.718;2023-06-10T04:51:23;9.82;;;4.82;;
25391;SDS011;13329;48.402;11.718;2023-06-10T04:53:48;10.17;;;5.50;;
25391;SDS011;13329;48.402;11.718;2023-06-10T04:56:13;8.07;;;5.33;;
25391;SDS011;13329;48.402;11.718;2023-06-10T04:58:39;7.43;;;4.85;;
25391;SDS011;13329;48.402;11.718;2023-06-10T05:01:04;10.23;;;5.63;;
25391;SDS011;13329;48.402;11.718;2023-06-10T05:03:30;9.35;;;5.38;;
25391;SDS011;13329;48.402;11.718;2023-06-10T05:05:55;9.65;;;5.18;;
25391;SDS011;13329;48.402;11.718;2023-06-10T05:08:20;7.33;;;5.10;;
25391;SDS011;13329;48.402;11.718;2023-06-10T05:10:45;9.50;;;4.67;;
25391;SDS011;13329;48.402;11.718;2023-06-10T05:13:10;8.43;;;5.60;;
25391;SDS011;13329;48.402;11.718;2023-06-10T05:15:35;8.77;;;4.90;;
25391;SDS011;13329;48.402;11.718;2023-06-10T05:18:02;8.10;;;5.10;;
25391;SDS011;13329;48.402;11.718;2023-06-10T05:20:27;9.85;;;5.38;;
25391;SDS011;13329;48.402;11.718;2023-06-10T05:22:53;9.68;;;5.55;;
25391;SDS011;13329;48.402;11.718;2023-06-10T05:25:18;8.97;;;5.53;;
25391;SDS011;13329;48.402;11.718;2023-06-10T05:27:44;8.40;;;5.22;;
25391;SDS011;13329;48.402;11.718;2023-06-10T05:30:12;6.37;;;4.77;;
25391;SDS011;13329;48.402;11.718;2023-06-10T05:32:37;9.63;;;4.68;;
25391;SDS011;13329;48.402;11.718;2023-06-10T05:35:03;8.17;;;5.37;;
25391;SDS011;13329;48.402;11.718;2023-06-10T05:37:29;9.32;;;5.25;;
25391;SDS011;13329;48.402;11.718;2023-06-10T05:39:54;8.47;;;5.27;;
25391;SDS011;13329;48.402;11.718;2023-06-10T05:42:19;7.73;;;5.33;;
25391;SDS011;13329;48.402;11.718;2023-06-10T05:44:45;7.10;;;4.93;;
25391;SDS011;13329;48.402;11.718;2023-06-10T05:47:10;8.30;;;5.47;;
25391;SDS011;13329;48.402;11.718;2023-06-10T05:49:35;7.73;;;5.60;;
25391;SDS011;13329;48.402;11.718;2023-06-10T05:52:00;10.60;;;5.73;;
25391;SDS011;13329;48.402;11.718;2023-06-10T05:54:26;10.13;;;5.57;;
25391;SDS011;13329;48.402;11.718;2023-06-10T05:56:51;7.45;;;5.07;;
25391;SDS011;13329;48.402;11.718;2023-06-10T05:59:16;9.00;;;5.17;;
25391;SDS011;13329;48.402;11.718;2023-06-10T06:01:41;8.07;;;5.33;;
25391;SDS011;13329;48.402;11.718;2023-06-10T06:04:06;10.77;;;5.93;;
25391;SDS011;13329;48.402;11.718;2023-06-10T06:06:32;7.53;;;4.60;;
25391;SDS011;13329;48.402;11.718;2023-06-10T06:08:57;9.03;;;5.33;;
25391;SDS011;13329;48.402;11.718;2023-06-10T06:11:22;8.63;;;5.53;;
25391;SDS011;13329;48.402;11.718;2023-06-10T06:13:47;8.33;;;5.33;;
25391;SDS011;13329;48.402;11.718;2023-06-10T06:16:13;8.30;;;5.43;;
25391;SDS011;13329;48.402;11.718;2023-06-10T06:18:38;8.77;;;5.25;;
25391;SDS011;13329;48.402;11.718;2023-06-10T06:21:04;6.82;;;4.70;;
25391;SDS011;13329;48.402;11.718;2023-06-10T06:23:29;6.20;;;4.78;;
25391;SDS011;13329;48.402;11.718;2023-06-10T06:25:55;7.68;;;4.90;;
25391;SDS011;13329;48.402;11.718;2023-06-10T06:28:20;7.63;;;5.03;;
25391;SDS011;13329;48.402;11.718;2023-06-10T06:30:47;8.98;;;5.07;;
25391;SDS011;13329;48.402;11.718;2023-06-10T06:33:12;7.60;;;4.67;;
25391;SDS011;13329;48.402;11.718;2023-06-10T06:35:37;8.75;;;4.95;;
25391;SDS011;13329;48.402;11.718;2023-06-10T06:38:03;9.25;;;5.18;;
25391;SDS011;13329;48.402;11.718;2023-06-10T06:40:29;7.65;;;4.53;;
25391;SDS011;13329;48.402;11.718;2023-06-10T06:42:54;8.53;;;5.13;;
25391;SDS011;13329;48.402;11.718;2023-06-10T06:45:19;9.00;;;5.23;;
25391;SDS011;13329;48.402;11.718;2023-06-10T06:47:44;7.47;;;4.65;;
25391;SDS011;13329;48.402;11.718;2023-06-10T06:50:10;9.93;;;5.07;;
25391;SDS011;13329;48.402;11.718;2023-06-10T06:52:35;7.90;;;5.10;;
25391;SDS011;13329;48.402;11.718;2023-06-10T06:55:00;8.37;;;4.97;;
25391;SDS011;13329;48.402;11.718;2023-06-10T06:57:25;7.40;;;4.60;;
25391;SDS011;13329;48.402;11.718;2023-06-10T06:59:50;9.20;;;5.40;;
25391;SDS011;13329;48.402;11.718;2023-06-10T07:02:15;6.97;;;4.90;;
25391;SDS011;13329;48.402;11.718;2023-06-10T07:04:41;9.20;;;4.43;;
25391;SDS011;13329;48.402;11.718;2023-06-10T07:07:07;7.67;;;5.00;;
25391;SDS011;13329;48.402;11.718;2023-06-10T07:09:33;8.07;;;5.28;;
25391;SDS011;13329;48.402;11.718;2023-06-10T07:11:58;8.53;;;4.90;;
25391;SDS011;13329;48.402;11.718;2023-06-10T07:14:23;8.47;;;5.30;;
25391;SDS011;13329;48.402;11.718;2023-06-10T07:16:48;8.90;;;5.00;;
25391;SDS011;13329;48.402;11.718;2023-06-10T07:19:14;6.72;;;4.53;;
25391;SDS011;13329;48.402;11.718;2023-06-10T07:21:39;7.68;;;4.97;;
25391;SDS011;13329;48.402;11.718;2023-06-10T07:24:05;7.43;;;4.97;;
25391;SDS011;13329;48.402;11.718;2023-06-10T07:26:30;7.72;;;4.90;;
25391;SDS011;13329;48.402;11.718;2023-06-10T07:28:55;8.25;;;5.32;;
25391;SDS011;13329;48.402;11.718;2023-06-10T07:31:21;8.13;;;4.60;;
25391;SDS011;13329;48.402;11.718;2023-06-10T07:33:46;9.33;;;5.00;;
25391;SDS011;13329;48.402;11.718;2023-06-10T07:36:11;7.68;;;5.15;;
25391;SDS011;13329;48.402;11.718;2023-06-10T07:38:37;9.60;;;5.10;;
25391;SDS011;13329;48.402;11.718;2023-06-10T07:41:02;7.80;;;4.77;;
25391;SDS011;13329;48.402;11.718;2023-06-10T07:43:27;9.30;;;4.93;;
25391;SDS011;13329;48.402;11.718;2023-06-10T07:45:52;8.13;;;4.93;;
25391;SDS011;13329;48.402;11.718;2023-06-10T07:48:17;8.43;;;5.10;;
25391;SDS011;13329;48.402;11.718;2023-06-10T07:50:42;5.80;;;4.13;;
25391;SDS011;13329;48.402;11.718;2023-06-10T07:53:08;8.13;;;4.80;;
25391;SDS011;13329;48.402;11.718;2023-06-10T07:55:33;7.93;;;5.10;;
25391;SDS011;13329;48.402;11.718;2023-06-10T07:57:58;5.97;;;4.20;;
25391;SDS011;13329;48.402;11.718;2023-06-10T08:00:23;7.27;;;5.00;;
25391;SDS011;13329;48.402;11.718;2023-06-10T08:02:49;5.97;;;4.50;;
25391;SDS011;13329;48.402;11.718;2023-06-10T08:05:15;6.50;;;4.30;;
25391;SDS011;13329;48.402;11.718;2023-06-10T08:07:40;6.70;;;4.20;;
25391;SDS011;13329;48.402;11.718;2023-06-10T08:10:06;7.73;;;4.27;;
25391;SDS011;13329;48.402;11.718;2023-06-10T08:12:32;5.28;;;4.10;;
25391;SDS011;13329;48.402;11.718;2023-06-10T08:14:57;6.25;;;4.35;;
25391;SDS011;13329;48.402;11.718;2023-06-10T08:17:22;6.50;;;3.97;;
25391;SDS011;13329;48.402;11.718;2023-06-10T08:19:48;6.78;;;4.32;;
25391;SDS011;13329;48.402;11.718;2023-06-10T08:22:13;7.10;;;4.10;;
25391;SDS011;13329;48.402;11.718;2023-06-10T08:24:39;5.85;;;3.80;;
25391;SDS011;13329;48.402;11.718;2023-06-10T08:27:04;5.43;;;3.43;;
25391;SDS011;13329;48.402;11.718;2023-06-10T08:29:30;4.65;;;3.88;;
25391;SDS011;13329;48.402;11.718;2023-06-10T08:31:56;9.73;;;4.35;;
25391;SDS011;13329;48.402;11.718;2023-06-10T08:34:22;7.00;;;4.20;;
25391;SDS011;13329;48.402;11.718;2023-06-10T08:36:47;5.17;;;3.83;;
25391;SDS011;13329;48.402;11.718;2023-06-10T08:39:12;6.43;;;4.30;;
25391;SDS011;13329;48.402;11.718;2023-06-10T08:41:40;6.67;;;4.23;;
25391;SDS011;13329;48.402;11.718;2023-06-10T08:44:16;7.63;;;4.88;;
25391;SDS011;13329;48.402;11.718;2023-06-10T08:46:45;5.55;;;4.15;;
25391;SDS011;13329;48.402;11.718;2023-06-10T08:49:10;5.38;;;3.90;;
25391;SDS011;13329;48.402;11.718;2023-06-10T08:51:38;6.32;;;4.35;;
25391;SDS011;13329;48.402;11.718;2023-06-10T08:54:11;5.22;;;3.80;;
25391;SDS011;13329;48.402;11.718;2023-06-10T08:56:39;6.20;;;4.30;;
25391;SDS011;13329;48.402;11.718;2023-06-10T08:59:04;5.97;;;4.40;;
25391;SDS011;13329;48.402;11.718;2023-06-10T09:01:30;5.35;;;4.22;;
25391;SDS011;13329;48.402;11.718;2023-06-10T09:03:55;5.68;;;3.85;;
25391;SDS011;13329;48.402;11.718;2023-06-10T09:06:21;4.82;;;3.60;;
25391;SDS011;13329;48.402;11.718;2023-06-10T09:08:47;6.13;;;3.60;;
25391;SDS011;13329;48.402;11.718;2023-06-10T09:11:12;6.10;;;3.67;;
25391;SDS011;13329;48.402;11.718;2023-06-10T09:13:37;8.63;;;4.10;;
25391;SDS011;13329;48.402;11.718;2023-06-10T09:16:02;5.87;;;4.10;;
25391;SDS011;13329;48.402;11.718;2023-06-10T09:18:28;5.15;;;3.70;;
25391;SDS011;13329;48.402;11.718;2023-06-10T09:20:53;4.95;;;3.30;;
25391;SDS011;13329;48.402;11.718;2023-06-10T09:23:18;4.87;;;3.97;;
25391;SDS011;13329;48.402;11.718;2023-06-10T09:25:43;5.93;;;3.73;;
25391;SDS011;13329;48.402;11.718;2023-06-10T09:28:15;4.97;;;3.50;;
25391;SDS011;13329;48.402;11.718;2023-06-10T09:30:40;4.60;;;3.28;;
25391;SDS011;13329;48.402;11.718;2023-06-10T09:33:10;5.30;;;3.57;;
25391;SDS011;13329;48.402;11.718;2023-06-10T09:35:36;4.50;;;3.78;;
25391;SDS011;13329;48.402;11.718;2023-06-10T09:38:01;6.07;;;3.65;;
25391;SDS011;13329;48.402;11.718;2023-06-10T09:40:27;4.35;;;3.30;;
25391;SDS011;13329;48.402;11.718;2023-06-10T09:42:56;5.80;;;3.67;;
25391;SDS011;13329;48.402;11.718;2023-06-10T09:45:22;4.45;;;3.33;;
25391;SDS011;13329;48.402;11.718;2023-06-10T09:47:47;4.65;;;3.50;;
25391;SDS011;13329;48.402;11.718;2023-06-10T09:50:13;7.03;;;3.90;;
25391;SDS011;13329;48.402;11.718;2023-06-10T09:52:38;4.50;;;3.35;;
25391;SDS011;13329;48.402;11.718;2023-06-10T09:55:04;5.40;;;3.63;;
25391;SDS011;13329;48.402;11.718;2023-06-10T09:57:33;4.53;;;3.08;;
25391;SDS011;13329;48.402;11.718;2023-06-10T10:00:08;3.67;;;3.13;;
25391;SDS011;13329;48.402;11.718;2023-06-10T10:02:43;3.30;;;2.90;;
25391;SDS011;13329;48.402;11.718;2023-06-10T10:05:08;4.88;;;3.60;;
25391;SDS011;13329;48.402;11.718;2023-06-10T10:07:33;5.72;;;3.70;;
25391;SDS011;13329;48.402;11.718;2023-06-10T10:09:59;6.43;;;3.57;;
25391;SDS011;13329;48.402;11.718;2023-06-10T10:12:24;5.65;;;3.53;;
25391;SDS011;13329;48.402;11.718;2023-06-10T10:14:50;5.15;;;3.47;;
25391;SDS011;13329;48.402;11.718;2023-06-10T10:17:15;4.78;;;3.38;;
25391;SDS011;13329;48.402;11.718;2023-06-10T10:19:48;4.78;;;3.60;;
25391;SDS011;13329;48.402;11.718;2023-06-10T10:22:18;5.60;;;3.30;;
25391;SDS011;13329;48.402;11.718;2023-06-10T10:24:51;4.75;;;3.38;;
25391;SDS011;13329;48.402;11.718;2023-06-10T10:27:18;5.18;;;3.97;;
25391;SDS011;13329;48.402;11.718;2023-06-10T10:29:46;4.60;;;3.20;;
25391;SDS011;13329;48.402;11.718;2023-06-10T10:32:12;4.18;;;3.10;;
25391;SDS011;13329;48.402;11.718;2023-06-10T10:34:45;4.93;;;3.28;;
25391;SDS011;13329;48.402;11.718;2023-06-10T10:37:13;5.20;;;3.50;;
25391;SDS011;13329;48.402;11.718;2023-06-10T10:39:39;5.33;;;3.50;;
25391;SDS011;13329;48.402;11.718;2023-06-10T10:42:04;2.95;;;2.63;;
25391;SDS011;13329;48.402;11.718;2023-06-10T10:44:30;4.18;;;2.88;;
25391;SDS011;13329;48.402;11.718;2023-06-10T10:46:56;5.05;;;2.92;;
25391;SDS011;13329;48.402;11.718;2023-06-10T10:49:22;3.35;;;2.60;;
25391;SDS011;13329;48.402;11.718;2023-06-10T10:52:00;3.65;;;2.65;;
25391;SDS011;13329;48.402;11.718;2023-06-10T10:54:29;3.97;;;3.10;;
25391;SDS011;13329;48.402;11.718;2023-06-10T10:57:11;4.05;;;3.38;;
25391;SDS011;13329;48.402;11.718;2023-06-10T11:00:10;5.00;;;3.53;;
25391;SDS011;13329;48.402;11.718;2023-06-10T11:05:02;4.63;;;3.40;;
25391;SDS011;13329;48.402;11.718;2023-06-10T11:07:31;5.85;;;3.42;;
25391;SDS011;13329;48.402;11.718;2023-06-10T11:09:57;5.25;;;3.13;;
25391;SDS011;13329;48.402;11.718;2023-06-10T11:12:23;6.53;;;3.10;;
25391;SDS011;13329;48.402;11.718;2023-06-10T11:14:53;4.72;;;2.72;;
25391;SDS011;13329;48.402;11.718;2023-06-10T11:17:19;4.03;;;2.90;;
25391;SDS011;13329;48.402;11.718;2023-06-10T11:19:45;3.92;;;3.13;;
25391;SDS011;13329;48.402;11.718;2023-06-10T11:22:14;4.53;;;2.97;;
25391;SDS011;13329;48.402;11.718;2023-06-10T11:24:40;4.10;;;3.35;;
25391;SDS011;13329;48.402;11.718;2023-06-10T11:27:18;4.00;;;3.38;;
25391;SDS011;13329;48.402;11.718;2023-06-10T11:32:34;4.70;;;3.22;;
25391;SDS011;13329;48.402;11.718;2023-06-10T11:35:02;4.32;;;3.15;;
25391;SDS011;13329;48.402;11.718;2023-06-10T11:37:28;4.63;;;3.38;;
25391;SDS011;13329;48.402;11.718;2023-06-10T11:39:54;4.13;;;3.10;;
25391;SDS011;13329;48.402;11.718;2023-06-10T11:42:19;5.93;;;3.03;;
25391;SDS011;13329;48.402;11.718;2023-06-10T11:44:51;4.38;;;3.08;;
25391;SDS011;13329;48.402;11.718;2023-06-10T11:47:20;3.60;;;2.92;;
25391;SDS011;13329;48.402;11.718;2023-06-10T11:49:45;5.10;;;3.20;;
25391;SDS011;13329;48.402;11.718;2023-06-10T11:52:11;4.03;;;3.13;;
25391;SDS011;13329;48.402;11.718;2023-06-10T11:54:36;4.95;;;3.17;;
25391;SDS011;13329;48.402;11.718;2023-06-10T11:57:02;4.65;;;3.13;;
25391;SDS011;13329;48.402;11.718;2023-06-10T11:59:28;7.28;;;2.90;;
25391;SDS011;13329;48.402;11.718;2023-06-10T12:01:53;3.70;;;2.83;;
25391;SDS011;13329;48.402;11.718;2023-06-10T12:04:18;4.00;;;3.10;;
25391;SDS011;13329;48.402;11.718;2023-06-10T12:09:22;3.90;;;2.93;;
25391;SDS011;13329;48.402;11.718;2023-06-10T12:12:05;4.75;;;2.88;;
25391;SDS011;13329;48.402;11.718;2023-06-10T12:17:15;3.55;;;2.70;;
25391;SDS011;13329;48.402;11.718;2023-06-10T12:19:40;7.57;;;3.00;;
25391;SDS011;13329;48.402;11.718;2023-06-10T12:22:05;3.83;;;3.20;;
25391;SDS011;13329;48.402;11.718;2023-06-10T12:24:31;4.13;;;3.23;;
25391;SDS011;13329;48.402;11.718;2023-06-10T12:26:56;7.83;;;3.50;;
25391;SDS011;13329;48.402;11.718;2023-06-10T12:29:24;5.73;;;3.70;;
25391;SDS011;13329;48.402;11.718;2023-06-10T12:31:56;4.72;;;3.17;;
25391;SDS011;13329;48.402;11.718;2023-06-10T12:34:38;5.32;;;3.65;;
25391;SDS011;13329;48.402;11.718;2023-06-10T12:37:09;4.72;;;3.47;;
25391;SDS011;13329;48.402;11.718;2023-06-10T12:39:38;4.13;;;3.28;;
25391;SDS011;13329;48.402;11.718;2023-06-10T12:42:03;6.13;;;3.33;;
25391;SDS011;13329;48.402;11.718;2023-06-10T12:44:33;5.47;;;3.60;;
25391;SDS011;13329;48.402;11.718;2023-06-10T12:46:59;4.72;;;3.28;;
25391;SDS011;13329;48.402;11.718;2023-06-10T12:49:24;4.43;;;3.53;;
25391;SDS011;13329;48.402;11.718;2023-06-10T12:51:51;6.63;;;4.10;;
25391;SDS011;13329;48.402;11.718;2023-06-10T12:54:16;4.17;;;3.53;;
25391;SDS011;13329;48.402;11.718;2023-06-10T12:56:41;4.87;;;3.50;;
25391;SDS011;13329;48.402;11.718;2023-06-10T12:59:06;5.10;;;3.80;;
25391;SDS011;13329;48.402;11.718;2023-06-10T13:01:31;5.30;;;3.53;;
25391;SDS011;13329;48.402;11.718;2023-06-10T13:03:58;4.25;;;3.70;;
25391;SDS011;13329;48.402;11.718;2023-06-10T13:06:23;6.95;;;3.63;;
25391;SDS011;13329;48.402;11.718;2023-06-10T13:08:48;4.43;;;3.27;;
25391;SDS011;13329;48.402;11.718;2023-06-10T13:11:13;4.90;;;3.43;;
25391;SDS011;13329;48.402;11.718;2023-06-10T13:13:38;3.93;;;2.93;;
25391;SDS011;13329;48.402;11.718;2023-06-10T13:16:04;4.80;;;3.37;;
25391;SDS011;13329;48.402;11.718;2023-06-10T13:18:29;6.22;;;3.42;;
25391;SDS011;13329;48.402;11.718;2023-06-10T13:20:54;3.92;;;2.83;;
25391;SDS011;13329;48.402;11.718;2023-06-10T13:23:19;3.63;;;2.50;;
25391;SDS011;13329;48.402;11.718;2023-06-10T13:25:45;3.97;;;2.47;;
25391;SDS011;13329;48.402;11.718;2023-06-10T13:28:10;2.72;;;1.88;;
25391;SDS011;13329;48.402;11.718;2023-06-10T13:30:36;2.35;;;1.88;;
25391;SDS011;13329;48.402;11.718;2023-06-10T13:33:01;2.30;;;1.87;;
25391;SDS011;13329;48.402;11.718;2023-06-10T13:35:27;3.80;;;2.13;;
25391;SDS011;13329;48.402;11.718;2023-06-10T13:37:52;1.97;;;1.43;;
25391;SDS011;13329;48.402;11.718;2023-06-10T13:40:17;3.95;;;2.08;;
25391;SDS011;13329;48.402;11.718;2023-06-10T13:42:44;2.15;;;1.90;;
25391;SDS011;13329;48.402;11.718;2023-06-10T13:45:10;2.40;;;1.88;;
25391;SDS011;13329;48.402;11.718;2023-06-10T13:47:35;3.00;;;2.10;;
25391;SDS011;13329;48.402;11.718;2023-06-10T13:50:00;3.10;;;2.08;;
25391;SDS011;13329;48.402;11.718;2023-06-10T13:52:25;2.83;;;2.17;;
25391;SDS011;13329;48.402;11.718;2023-06-10T13:54:50;4.00;;;2.37;;
25391;SDS011;13329;48.402;11.718;2023-06-10T13:57:16;2.80;;;2.20;;
25391;SDS011;13329;48.402;11.718;2023-06-10T13:59:41;2.93;;;2.20;;
25391;SDS011;13329;48.402;11.718;2023-06-10T14:02:06;2.23;;;2.00;;
25391;SDS011;13329;48.402;11.718;2023-06-10T14:04:31;3.60;;;2.17;;
25391;SDS011;13329;48.402;11.718;2023-06-10T14:06:57;2.70;;;2.28;;
25391;SDS011;13329;48.402;11.718;2023-06-10T14:09:22;4.43;;;2.83;;
25391;SDS011;13329;48.402;11.718;2023-06-10T14:11:48;4.13;;;2.50;;
25391;SDS011;13329;48.402;11.718;2023-06-10T14:14:13;3.70;;;2.72;;
25391;SDS011;13329;48.402;11.718;2023-06-10T14:16:39;3.05;;;2.55;;
25391;SDS011;13329;48.402;11.718;2023-06-10T14:19:05;4.80;;;2.55;;
25391;SDS011;13329;48.402;11.718;2023-06-10T14:21:30;4.27;;;2.47;;
25391;SDS011;13329;48.402;11.718;2023-06-10T14:23:55;2.77;;;2.40;;
25391;SDS011;13329;48.402;11.718;2023-06-10T14:26:20;3.80;;;2.80;;
25391;SDS011;13329;48.402;11.718;2023-06-10T14:28:47;4.35;;;2.90;;
25391;SDS011;13329;48.402;11.718;2023-06-10T14:31:12;3.63;;;2.70;;
25391;SDS011;13329;48.402;11.718;2023-06-10T14:33:37;3.13;;;2.57;;
25391;SDS011;13329;48.402;11.718;2023-06-10T14:36:02;3.87;;;2.47;;
25391;SDS011;13329;48.402;11.718;2023-06-10T14:38:28;3.57;;;2.70;;
25391;SDS011;13329;48.402;11.718;2023-06-10T14:40:53;4.13;;;3.03;;
25391;SDS011;13329;48.402;11.718;2023-06-10T14:43:18;3.80;;;2.80;;